createdAt,value
2022-11-15T00:03:28.794Z,8.60
2022-11-15T00:09:30.679Z,8.80
2022-11-15T00:15:32.468Z,9.00
2022-11-15T00:21:34.245Z,9.20
2022-11-15T00:27:36.254Z,9.40
2022-11-15T00:33:38.034Z,9.40
2022-11-15T00:39:39.676Z,9.50
2022-11-15T00:45:41.327Z,9.50
2022-11-15T00:51:43.084Z,9.60
2022-11-15T00:57:44.777Z,9.60
2022-11-15T01:03:46.497Z,9.70
2022-11-15T01:09:48.221Z,9.80
2022-11-15T01:15:49.861Z,9.90
2022-11-15T01:21:51.629Z,10.00
2022-11-15T01:27:53.277Z,10.10
2022-11-15T01:33:55.039Z,10.20
2022-11-15T01:39:56.788Z,10.30
2022-11-15T01:46:15.738Z,10.40
2022-11-15T01:52:20.065Z,10.50
2022-11-15T01:58:21.795Z,10.60
2022-11-15T02:04:26.774Z,10.60
2022-11-15T02:10:28.732Z,10.70
2022-11-15T02:16:45.656Z,10.60
2022-11-15T02:22:58.383Z,10.60
2022-11-15T02:29:04.218Z,10.60
2022-11-15T02:35:14.973Z,10.50
2022-11-15T02:41:21.117Z,10.60
2022-11-15T02:47:23.413Z,10.70
2022-11-15T02:53:26.168Z,10.60
2022-11-15T02:59:38.424Z,10.60
2022-11-15T03:05:43.525Z,10.60
2022-11-15T03:11:56.241Z,10.60
2022-11-15T03:18:11.532Z,10.60
2022-11-15T03:24:13.607Z,10.80
2022-11-15T03:30:15.634Z,10.70
2022-11-15T03:36:17.624Z,10.70
2022-11-15T03:42:25.129Z,10.70
2022-11-15T03:48:28.480Z,10.70
2022-11-15T03:54:30.494Z,10.70
2022-11-15T04:00:32.257Z,10.70
2022-11-15T04:06:34.005Z,10.70
2022-11-15T04:12:37.525Z,10.80
2022-11-15T04:18:39.275Z,10.90
2022-11-15T04:24:40.910Z,11.00
2022-11-15T04:30:42.594Z,11.00
2022-11-15T04:37:02.676Z,11.00
2022-11-15T04:43:04.903Z,10.90
2022-11-15T04:49:06.589Z,10.80
2022-11-15T04:55:08.535Z,10.60
2022-11-15T05:01:17.562Z,10.60
2022-11-15T05:07:19.431Z,10.70
2022-11-15T05:13:21.273Z,10.70
2022-11-15T05:19:22.941Z,10.70
2022-11-15T05:25:24.778Z,10.80
2022-11-15T05:31:27.131Z,10.80
2022-11-15T05:37:29.651Z,10.80
2022-11-15T05:43:32.701Z,10.80
2022-11-15T05:49:36.120Z,10.80
2022-11-15T05:55:38.886Z,10.80
2022-11-15T06:01:40.930Z,10.80
2022-11-15T06:07:42.652Z,10.70
2022-11-15T06:13:44.346Z,10.70
2022-11-15T06:19:45.970Z,10.80
2022-11-15T06:25:47.642Z,10.80
2022-11-15T06:31:49.472Z,10.90
2022-11-15T06:37:51.273Z,10.90
2022-11-15T06:43:53.074Z,11.00
2022-11-15T06:49:54.779Z,11.10
2022-11-15T06:55:59.876Z,11.10
2022-11-15T07:02:01.562Z,11.20
2022-11-15T07:08:03.884Z,11.30
2022-11-15T07:14:05.588Z,11.30
2022-11-15T07:20:07.453Z,11.40
2022-11-15T07:26:09.250Z,11.40
2022-11-15T07:32:11.137Z,11.40
2022-11-15T07:38:12.864Z,11.50
2022-11-15T07:44:14.563Z,11.50
2022-11-15T07:50:16.921Z,11.80
2022-11-15T07:56:18.699Z,11.90
2022-11-15T08:02:20.531Z,12.00
2022-11-15T08:08:22.173Z,12.10
2022-11-15T08:14:23.849Z,12.20
2022-11-15T08:20:26.434Z,12.30
2022-11-15T08:26:30.319Z,12.30
2022-11-15T08:32:32.430Z,12.30
2022-11-15T08:38:34.492Z,12.30
2022-11-15T08:44:36.699Z,12.40
2022-11-15T08:50:38.778Z,12.30
2022-11-15T08:56:40.581Z,12.30
2022-11-15T09:02:42.353Z,12.30
2022-11-15T09:08:48.384Z,12.40
2022-11-15T09:14:59.224Z,12.60
2022-11-15T09:21:01.291Z,12.90
2022-11-15T09:27:03.031Z,12.90
2022-11-15T09:33:08.962Z,13.00
2022-11-15T09:39:10.825Z,13.10
2022-11-15T09:45:12.442Z,13.20
2022-11-15T09:51:17.790Z,13.40
2022-11-15T09:57:22.946Z,13.50
2022-11-15T10:03:29.855Z,13.70
2022-11-15T10:09:37.054Z,13.90
2022-11-15T10:15:38.917Z,13.90
2022-11-15T10:21:52.399Z,13.90
2022-11-15T10:27:55.801Z,14.10
2022-11-15T10:34:12.160Z,14.10
2022-11-15T10:40:21.874Z,14.10
2022-11-15T10:46:45.540Z,14.10
2022-11-15T10:52:46.897Z,14.30
2022-11-15T10:58:55.643Z,14.30
2022-11-15T11:04:57.990Z,14.50
2022-11-15T11:11:03.244Z,14.70
2022-11-15T11:17:08.202Z,14.80
2022-11-15T11:23:15.755Z,15.20
2022-11-15T11:29:20.154Z,15.40
2022-11-15T11:35:28.364Z,15.50
2022-11-15T11:41:51.050Z,15.70
2022-11-15T11:47:59.804Z,15.30
2022-11-15T11:54:21.811Z,15.50
2022-11-15T12:00:24.351Z,15.30
2022-11-15T12:06:26.025Z,15.30
2022-11-15T12:12:30.811Z,14.90
2022-11-15T12:18:33.180Z,15.20
2022-11-15T12:24:44.073Z,15.20
2022-11-15T12:30:52.034Z,15.40
2022-11-15T12:36:53.793Z,15.50
2022-11-15T12:43:05.988Z,15.20
2022-11-15T12:49:22.876Z,15.20
2022-11-15T12:55:32.270Z,15.30
2022-11-15T13:01:33.945Z,15.30
2022-11-15T13:07:35.707Z,15.10
2022-11-15T13:13:44.671Z,14.60
2022-11-15T13:19:47.491Z,14.40
2022-11-15T13:25:55.089Z,14.50
2022-11-15T13:31:56.828Z,14.40
2022-11-15T13:38:04.248Z,14.00
2022-11-15T13:44:19.512Z,13.90
2022-11-15T13:50:23.332Z,14.00
2022-11-15T13:56:27.008Z,14.00
2022-11-15T14:02:30.990Z,14.00
2022-11-15T14:08:33.146Z,14.00
2022-11-15T14:14:45.271Z,14.10
2022-11-15T14:20:47.043Z,14.20
2022-11-15T14:26:49.538Z,14.10
2022-11-15T14:32:51.436Z,14.10
2022-11-15T14:38:53.126Z,14.10
2022-11-15T14:44:54.890Z,13.90
2022-11-15T14:50:57.446Z,13.80
2022-11-15T14:56:59.122Z,13.60
2022-11-15T15:03:01.301Z,13.40
2022-11-15T15:09:03.378Z,13.30
2022-11-15T15:15:05.316Z,13.20
2022-11-15T15:21:20.981Z,13.10
2022-11-15T15:27:22.972Z,13.10
2022-11-15T15:33:24.677Z,13.20
2022-11-15T15:39:27.355Z,13.20
2022-11-15T15:45:30.644Z,13.10
2022-11-15T15:51:32.327Z,13.00
2022-11-15T15:57:33.937Z,13.00
2022-11-15T16:03:35.658Z,13.00
2022-11-15T16:09:56.026Z,13.00
2022-11-15T16:15:57.717Z,13.00
2022-11-15T16:21:59.389Z,13.10
2022-11-15T16:28:01.072Z,13.10
2022-11-15T16:34:02.750Z,13.10
2022-11-15T16:40:04.809Z,13.10
2022-11-15T16:46:25.187Z,13.10
2022-11-15T16:52:26.824Z,13.10
2022-11-15T16:58:28.593Z,13.10
2022-11-15T17:04:33.856Z,13.10
2022-11-15T17:10:39.157Z,13.20
2022-11-15T17:16:42.687Z,13.10
2022-11-15T17:22:44.518Z,13.10
2022-11-15T17:28:46.199Z,13.10
2022-11-15T17:34:47.974Z,13.00
2022-11-15T17:40:49.645Z,13.00
2022-11-15T17:46:51.323Z,13.00
2022-11-15T17:52:52.930Z,13.00
2022-11-15T17:58:55.788Z,13.00
2022-11-15T18:04:57.420Z,13.00
2022-11-15T18:11:06.128Z,12.90
2022-11-15T18:17:07.813Z,12.80
2022-11-15T18:23:09.482Z,12.70
2022-11-15T18:29:11.188Z,12.70
2022-11-15T18:35:12.843Z,12.60
2022-11-15T18:41:17.924Z,12.70
2022-11-15T18:47:19.709Z,12.70
2022-11-15T18:53:21.388Z,12.70
2022-11-15T18:59:23.121Z,12.70
2022-11-15T19:05:24.945Z,12.80
2022-11-15T19:11:28.982Z,12.90
2022-11-15T19:17:31.196Z,12.80
2022-11-15T19:23:33.888Z,12.80
2022-11-15T19:29:35.726Z,12.80
2022-11-15T19:35:37.415Z,12.80
2022-11-15T19:41:40.755Z,12.80
2022-11-15T19:47:42.631Z,12.80
2022-11-15T19:53:44.416Z,12.80
2022-11-15T19:59:46.072Z,12.70
2022-11-15T20:05:47.786Z,12.70
2022-11-15T20:11:49.448Z,12.70
2022-11-15T20:17:51.246Z,12.80
2022-11-15T20:23:53.027Z,12.80
2022-11-15T20:29:54.754Z,12.90
2022-11-15T20:35:56.644Z,12.90
2022-11-15T20:41:58.434Z,12.80
2022-11-15T20:48:00.187Z,12.80
2022-11-15T20:54:02.154Z,12.90
2022-11-15T21:00:05.963Z,12.80
2022-11-15T21:06:08.235Z,12.80
2022-11-15T21:12:14.163Z,12.80
2022-11-15T21:18:16.351Z,12.80
2022-11-15T21:24:20.080Z,12.70
2022-11-15T21:30:21.773Z,12.70
2022-11-15T21:36:25.107Z,12.70
2022-11-15T21:42:26.848Z,12.70
2022-11-15T21:48:29.371Z,12.70
2022-11-15T21:54:31.187Z,12.70
2022-11-15T22:00:51.525Z,12.70
2022-11-15T22:06:53.315Z,12.80
2022-11-15T22:12:54.986Z,12.80
2022-11-15T22:18:56.886Z,12.90
2022-11-15T22:24:58.571Z,12.90
2022-11-15T22:31:00.769Z,12.90
2022-11-15T22:43:25.450Z,12.80
2022-11-15T22:49:27.244Z,12.90
2022-11-15T22:55:28.874Z,12.80
2022-11-15T23:01:30.591Z,12.80
2022-11-15T23:07:34.080Z,12.70
2022-11-15T23:13:35.878Z,12.70
2022-11-15T23:19:37.673Z,12.80
2022-11-15T23:25:39.309Z,12.80
2022-11-15T23:32:02.291Z,12.80
2022-11-15T23:38:04.405Z,12.80
2022-11-15T23:44:06.095Z,12.80
2022-11-15T23:50:08.027Z,12.70
2022-11-15T23:56:10.988Z,12.60
